• Join FlightAware (Why Join?)
  • Login
  • US Flag 
01:35PM EDT


 

Airport Tracker/Info


-or-


 

Live Flight TrackerFlight Track Log ✈ VH-JVN ✈ 09-May-2013 ✈ YPUA - YPDN / DRW

Flight Track Log - Related Links

Times and Time Zones

All times are in EDT time to prevent confusion due to time zone crossing. See the VH-JVN flight status page for this flight to view local times or setup timezone preferences in your user account.

Time Position Orientation Groundspeed Altitude Reporting Facility
EDT Latitude Longitude Course Direction KTS MPH feet Rate Location/Type
01:36AM -14.2146 129.9356 352° North 800  Level Aus ATC (Calculated)
01:36AM -14.1589 129.9679 255° West 800 3,840 Level Aus ATC (Calculated)
01:37AM -14.1050 129.9992 227° Southwest 800 5,040 Level Aus ATC (Calculated)
01:38AM -14.1691 129.9294 36° Northeast 158 182 9,000 5,460 Climbing Aus ATC (RADAR)
01:39AM -14.1482 129.9449 36° Northeast 159 183 10,200 1,860 Climbing Aus ATC (RADAR)
01:40AM -14.1129 129.9707 35° Northeast 157 181 12,000 1,320 Climbing Aus ATC (RADAR)
01:41AM -14.0732 130.0036 39° Northeast 178 205 13,000 600 Climbing Aus ATC (RADAR)
01:41AM -14.0501 130.0164 28° Northeast 212 244 12,900 -120 Descending Aus ATC (RADAR)
01:42AM -14.0237 130.0297 26° Northeast 240 276 12,900  Level Aus ATC (RADAR)
01:42AM -13.9810 130.0522 27° Northeast 257 296 12,900  Level Aus ATC (RADAR)
01:43AM -13.9278 130.0693 17° North 264 304 12,900  Level Aus ATC (RADAR)
01:44AM -13.8846 130.0785 12° North 267 307 12,900  Level Aus ATC (RADAR)
01:44AM -13.8308 130.0963 18° North 270 311 12,900  Level Aus ATC (RADAR)
01:45AM -13.8007 130.1068 19° North 271 312 12,900  Level Aus ATC (RADAR)
01:46AM -13.7101 130.1629 31° Northeast 268 308 12,900  Level Aus ATC (RADAR)
01:47AM -13.6803 130.1857 37° Northeast 268 308 12,900  Level Aus ATC (RADAR)
01:47AM -13.6573 130.2072 42° Northeast 269 310 12,900  Level Aus ATC (RADAR)
01:48AM -13.6232 130.2343 38° Northeast 267 307 12,900  Level Aus ATC (RADAR)
01:48AM -13.5851 130.2658 39° Northeast 264 304 12,900  Level Aus ATC (RADAR)
01:49AM -13.5479 130.2883 30° Northeast 265 305 12,900  Level Aus ATC (RADAR)
01:50AM -13.4839 130.3127 20° North 266 306 12,900  Level Aus ATC (RADAR)
01:50AM -13.4667 130.3200 22° Northeast 266 306 12,900  Level Aus ATC (RADAR)
01:51AM -13.3742 130.3708 28° Northeast 266 306 12,900  Level Aus ATC (RADAR)
01:52AM -13.3473 130.3866 30° Northeast 267 307 12,900  Level Aus ATC (RADAR)
01:52AM -13.3082 130.4060 26° Northeast 266 306 12,900  Level Aus ATC (RADAR)
01:53AM -13.2530 130.4352 27° Northeast 266 306 12,900  Level Aus ATC (RADAR)
01:54AM -13.2158 130.4577 30° Northeast 266 306 12,900  Level Aus ATC (RADAR)
01:55AM -13.1578 130.4818 22° Northeast 269 310 12,900  Level Aus ATC (RADAR)
01:56AM -13.0535 130.5387 28° Northeast 268 308 12,900  Level Aus ATC (RADAR)
01:57AM -13.0264 130.5540 29° Northeast 267 307 12,900 -720 Level Aus ATC (RADAR)
01:57AM -12.9878 130.5771 30° Northeast 273 314 12,200 -1,380 Descending Aus ATC (RADAR)
01:58AM -12.9385 130.6025 27° Northeast 293 337 11,200 -1,560 Descending Aus ATC (RADAR)
01:59AM -12.9054 130.6363 45° Northeast 287 330 10,300 -900 Descending Aus ATC (RADAR)
01:59AM -12.8665 130.6853 51° Northeast 262 302 10,000 -720 Descending Aus ATC (RADAR)
02:00AM -12.8487 130.7088 52° Northeast 254 292 9,400 -1,440 Descending Aus ATC (RADAR)
02:00AM -12.8224 130.7433 52° Northeast 263 303 8,600 -1,380 Descending Aus ATC (RADAR)
02:01AM -12.7742 130.8094 53° Northeast 270 311 7,100 -1,440 Descending Aus ATC (RADAR)
02:02AM -12.7513 130.8396 52° Northeast 269 310 6,400 -1,200 Descending Aus ATC (RADAR)
02:03AM -12.7256 130.8708 50° Northeast 249 287 5,800 -1,140 Descending Aus ATC (RADAR)
02:03AM -12.6876 130.8795 13° North 242 278 5,100 -1,320 Descending Aus ATC (RADAR)
02:04AM -12.6497 130.8728 350° North 232 267 4,300 -1,320 Descending Aus ATC (RADAR)
02:05AM -12.6011 130.8656 352° North 201 231 3,300 -1,200 Descending Aus ATC (RADAR)
02:05AM -12.5788 130.8661 North 189 217 2,800 -900 Descending Aus ATC (RADAR)
02:06AM -12.5498 130.8653 358° North 173 199 2,400 -720 Descending Aus ATC (RADAR)
02:07AM -12.4908 130.8705 North 138 159 1,400 -840 Descending Aus ATC (RADAR)
02:07AM -12.4730 130.8718 North 127 146 900 -780 Descending Aus ATC (RADAR)
02:08AM -12.4532 130.8716 359° North 118 136 600 -540 Descending Aus ATC (RADAR)